createdAt,value
2019-02-04T00:02:27.176Z,66.57
2019-02-04T00:04:58.800Z,63.97
2019-02-04T00:07:30.439Z,65.20
2019-02-04T00:10:01.843Z,67.87
2019-02-04T00:12:33.745Z,64.87
2019-02-04T00:15:07.991Z,83.60
2019-02-04T00:17:40.770Z,91.47
2019-02-04T00:20:13.231Z,94.47
2019-02-04T00:22:45.020Z,84.90
2019-02-04T00:25:17.137Z,85.42
2019-02-04T00:27:48.838Z,85.62
2019-02-04T00:30:21.467Z,87.90
2019-02-04T00:32:52.978Z,85.13
2019-02-04T00:35:24.286Z,83.30
2019-02-04T00:37:55.666Z,82.33
2019-02-04T00:40:46.574Z,78.90
2019-02-04T00:43:17.890Z,78.53
2019-02-04T00:45:51.286Z,86.30
2019-02-04T00:48:23.019Z,76.57
2019-02-04T00:50:54.601Z,82.67
2019-02-04T00:53:26.374Z,97.03
2019-02-04T00:55:58.124Z,82.07
2019-02-04T00:58:30.103Z,89.83
2019-02-04T01:01:01.729Z,86.00
2019-02-04T01:03:33.088Z,84.50
2019-02-04T01:06:04.537Z,89.53
2019-02-04T01:08:36.697Z,83.75
2019-02-04T01:11:08.218Z,80.97
2019-02-04T01:13:39.528Z,78.73
2019-02-04T01:16:10.810Z,92.50
2019-02-04T01:18:44.125Z,83.22
2019-02-04T01:21:15.453Z,77.07
2019-02-04T01:23:46.842Z,95.20
2019-02-04T01:26:18.377Z,85.40
2019-02-04T01:28:49.733Z,89.23
2019-02-04T01:31:21.058Z,83.07
2019-02-04T01:33:52.712Z,88.80
2019-02-04T01:36:25.001Z,102.57
2019-02-04T01:38:56.997Z,96.50
2019-02-04T01:41:28.910Z,91.10
2019-02-04T01:44:00.296Z,102.60
2019-02-04T01:46:32.063Z,94.13
2019-02-04T01:49:04.095Z,88.63
2019-02-04T01:51:35.799Z,92.63
2019-02-04T01:54:07.308Z,95.23
2019-02-04T01:56:38.787Z,99.47
2019-02-04T01:59:11.324Z,92.62
2019-02-04T02:01:42.608Z,116.37
2019-02-04T02:04:14.320Z,119.93
2019-02-04T02:06:46.116Z,125.03
2019-02-04T02:09:26.976Z,137.67
2019-02-04T02:11:58.413Z,150.33
2019-02-04T02:14:30.419Z,142.87
2019-02-04T02:17:02.121Z,152.60
2019-02-04T02:19:34.350Z,140.67
2019-02-04T02:22:06.520Z,128.33
2019-02-04T02:24:37.898Z,121.95
2019-02-04T02:27:09.282Z,123.67
2019-02-04T02:29:40.621Z,118.50
2019-02-04T02:32:12.152Z,111.00
2019-02-04T02:34:43.479Z,118.40
2019-02-04T02:37:15.035Z,126.70
2019-02-04T02:39:46.660Z,106.60
2019-02-04T02:42:18.391Z,113.63
2019-02-04T02:44:49.998Z,101.30
2019-02-04T02:47:21.459Z,98.73
2019-02-04T02:49:53.303Z,87.53
2019-02-04T02:52:24.696Z,95.22
2019-02-04T02:54:56.075Z,94.33
2019-02-04T02:57:27.488Z,98.37
2019-02-04T02:59:58.779Z,95.00
2019-02-04T03:02:30.480Z,95.37
2019-02-04T03:05:01.878Z,87.37
2019-02-04T03:07:33.253Z,94.00
2019-02-04T03:10:05.052Z,93.37
2019-02-04T03:12:37.021Z,99.37
2019-02-04T03:15:09.669Z,96.53
2019-02-04T03:17:51.049Z,91.93
2019-02-04T03:20:14.511Z,82.83
2019-02-04T03:22:45.854Z,90.87
2019-02-04T03:25:17.225Z,85.23
2019-02-04T03:27:48.589Z,86.40
2019-02-04T03:30:29.743Z,93.47
2019-02-04T03:33:01.099Z,88.62
2019-02-04T03:35:32.967Z,79.17
2019-02-04T03:38:04.938Z,83.50
2019-02-04T03:40:36.260Z,78.40
2019-02-04T03:43:07.659Z,77.58
2019-02-04T03:45:39.239Z,72.47
2019-02-04T03:48:10.575Z,77.27
2019-02-04T03:50:42.257Z,88.03
2019-02-04T03:53:13.872Z,82.87
2019-02-04T03:55:45.217Z,100.83
2019-02-04T03:58:16.624Z,88.17
2019-02-04T04:00:48.305Z,87.63
2019-02-04T04:03:19.944Z,115.13
2019-02-04T04:05:51.505Z,97.62
2019-02-04T04:08:23.048Z,100.30
2019-02-04T04:10:55.178Z,104.75
2019-02-04T04:13:27.999Z,111.05
2019-02-04T04:15:59.681Z,114.85
2019-02-04T04:18:31.071Z,116.30
2019-02-04T04:21:02.631Z,101.90
2019-02-04T04:23:33.983Z,120.80
2019-02-04T04:26:06.295Z,115.88
2019-02-04T04:28:38.300Z,118.73
2019-02-04T04:31:09.709Z,116.00
2019-02-04T04:33:41.421Z,124.83
2019-02-04T04:36:13.079Z,114.52
2019-02-04T04:38:45.311Z,127.20
2019-02-04T04:41:17.279Z,112.17
2019-02-04T04:43:48.969Z,93.03
2019-02-04T04:46:20.701Z,86.07
2019-02-04T04:48:52.711Z,84.10
2019-02-04T04:51:24.636Z,76.60
2019-02-04T04:53:55.963Z,85.27
2019-02-04T04:56:28.089Z,73.02
2019-02-04T04:58:59.480Z,65.60
2019-02-04T05:01:31.252Z,59.70
2019-02-04T05:04:02.694Z,64.27
2019-02-04T05:06:34.052Z,56.35
2019-02-04T05:09:07.501Z,57.70
2019-02-04T05:11:38.820Z,55.48
2019-02-04T05:14:10.593Z,62.43
2019-02-04T05:16:41.977Z,54.20
2019-02-04T05:19:13.301Z,55.33
2019-02-04T05:21:44.705Z,51.67
2019-02-04T05:24:16.014Z,55.05
2019-02-04T05:26:47.641Z,50.97
2019-02-04T05:29:19.146Z,52.17
2019-02-04T05:31:50.476Z,54.63
2019-02-04T05:34:21.963Z,53.80
2019-02-04T05:36:53.519Z,53.57
2019-02-04T05:39:25.190Z,61.63
2019-02-04T05:41:56.524Z,55.40
2019-02-04T05:44:27.928Z,55.87
2019-02-04T05:47:00.546Z,52.70
2019-02-04T05:49:31.984Z,51.70
2019-02-04T05:52:03.547Z,52.30
2019-02-04T05:54:34.892Z,51.50
2019-02-04T05:57:06.352Z,52.83
2019-02-04T05:59:37.780Z,63.38
2019-02-04T06:02:09.634Z,61.00
2019-02-04T06:04:41.044Z,67.07
2019-02-04T06:07:15.341Z,55.70
2019-02-04T06:09:45.778Z,55.13
2019-02-04T06:12:17.182Z,58.90
2019-02-04T06:14:48.597Z,68.97
2019-02-04T06:17:20.423Z,63.47
2019-02-04T06:19:52.080Z,64.97
2019-02-04T06:22:23.919Z,63.50
2019-02-04T06:24:55.321Z,72.57
2019-02-04T06:27:27.061Z,67.50
2019-02-04T06:29:58.439Z,68.27
2019-02-04T06:32:29.845Z,66.03
2019-02-04T06:35:01.175Z,69.43
2019-02-04T06:37:32.545Z,64.42
2019-02-04T06:40:06.737Z,64.95
2019-02-04T06:42:38.335Z,63.40
2019-02-04T06:45:12.592Z,71.80
2019-02-04T06:47:44.014Z,65.05
2019-02-04T06:50:17.084Z,67.40
2019-02-04T06:52:48.475Z,62.23
2019-02-04T06:55:29.421Z,65.37
2019-02-04T06:58:00.851Z,56.50
2019-02-04T07:00:32.810Z,63.10
2019-02-04T07:03:04.634Z,57.03
2019-02-04T07:05:43.515Z,62.23
2019-02-04T07:08:09.926Z,56.90
2019-02-04T07:10:41.654Z,64.50
2019-02-04T07:13:12.981Z,62.70
2019-02-04T07:15:45.031Z,55.47
2019-02-04T07:18:16.359Z,56.47
2019-02-04T07:20:47.724Z,60.20
2019-02-04T07:23:19.704Z,53.27
2019-02-04T07:25:51.424Z,61.50
2019-02-04T07:28:22.779Z,60.23
2019-02-04T07:30:54.184Z,56.47
2019-02-04T07:33:26.178Z,56.17
2019-02-04T07:35:57.816Z,55.10
2019-02-04T07:38:29.289Z,60.43
2019-02-04T07:41:01.251Z,55.70
2019-02-04T07:43:32.911Z,55.10
2019-02-04T07:46:04.397Z,57.73
2019-02-04T07:48:37.627Z,59.27
2019-02-04T07:51:08.933Z,68.80
2019-02-04T07:57:16.218Z,51.03
2019-02-04T07:59:47.460Z,50.73
2019-02-04T08:02:18.740Z,44.03
2019-02-04T08:04:50.137Z,48.00
2019-02-04T08:07:21.731Z,54.20
2019-02-04T08:09:53.021Z,40.15
2019-02-04T08:12:25.473Z,41.33
2019-02-04T08:14:57.081Z,40.10
2019-02-04T08:17:28.505Z,36.63
2019-02-04T08:19:59.973Z,32.30
2019-02-04T08:22:31.673Z,48.20
2019-02-04T08:25:03.275Z,34.27
2019-02-04T08:27:34.617Z,33.30
2019-02-04T08:30:08.075Z,34.33
2019-02-04T08:32:39.398Z,28.63
2019-02-04T08:35:11.192Z,27.77
2019-02-04T08:37:42.807Z,32.73
2019-02-04T08:40:14.783Z,29.47
2019-02-04T08:42:47.891Z,23.73
2019-02-04T08:45:19.399Z,25.37
2019-02-04T08:47:51.288Z,27.13
2019-02-04T08:50:23.408Z,24.93
2019-02-04T08:52:55.175Z,20.50
2019-02-04T08:55:26.471Z,26.80
2019-02-04T08:57:58.312Z,21.43
2019-02-04T09:00:29.886Z,23.00
2019-02-04T09:03:01.759Z,25.50
2019-02-04T09:05:33.302Z,25.90
2019-02-04T09:08:04.988Z,19.97
2019-02-04T09:10:36.705Z,21.23
2019-02-04T09:13:08.064Z,25.63
2019-02-04T09:15:39.712Z,18.73
2019-02-04T09:18:11.123Z,22.73
2019-02-04T09:20:42.558Z,20.00
2019-02-04T09:23:14.168Z,18.03
2019-02-04T09:25:45.786Z,20.12
2019-02-04T09:28:17.632Z,20.07
2019-02-04T09:30:49.324Z,21.63
2019-02-04T09:33:20.673Z,20.90
2019-02-04T09:35:52.703Z,16.93
2019-02-04T09:38:24.298Z,21.93
2019-02-04T09:40:55.574Z,18.73
2019-02-04T09:43:27.068Z,17.47
2019-02-04T09:45:58.368Z,20.33
2019-02-04T09:48:29.704Z,16.43
2019-02-04T09:51:03.326Z,17.33
2019-02-04T09:53:35.400Z,18.15
2019-02-04T09:56:07.311Z,18.03
2019-02-04T09:58:38.676Z,19.97
2019-02-04T10:01:10.208Z,18.02
2019-02-04T10:03:41.860Z,17.07
2019-02-04T10:06:13.406Z,17.37
2019-02-04T10:08:44.858Z,18.73
2019-02-04T10:11:16.517Z,22.50
2019-02-04T10:13:48.510Z,15.77
2019-02-04T10:16:19.890Z,17.50
2019-02-04T10:18:52.289Z,16.75
2019-02-04T10:21:24.122Z,16.30
2019-02-04T10:23:55.480Z,14.60
2019-02-04T10:26:27.017Z,13.63
2019-02-04T10:28:58.319Z,17.17
2019-02-04T10:31:29.635Z,14.60
2019-02-04T10:34:01.215Z,14.07
2019-02-04T10:36:32.619Z,13.53
2019-02-04T10:39:05.285Z,14.50
2019-02-04T10:41:36.587Z,12.80
2019-02-04T10:44:08.450Z,12.63
2019-02-04T10:46:40.025Z,11.22
2019-02-04T10:49:11.406Z,14.07
2019-02-04T10:51:42.757Z,13.03
2019-02-04T10:54:15.188Z,14.23
2019-02-04T10:56:46.837Z,9.97
2019-02-04T10:59:18.493Z,13.70
2019-02-04T11:01:50.074Z,13.30
2019-02-04T11:04:21.701Z,10.17
2019-02-04T11:06:53.054Z,14.53
2019-02-04T11:09:24.598Z,11.57
2019-02-04T11:11:56.634Z,10.13
2019-02-04T11:14:28.409Z,14.23
2019-02-04T11:16:59.728Z,13.60
2019-02-04T11:19:31.139Z,13.30
2019-02-04T11:22:02.918Z,14.57
2019-02-04T11:24:34.590Z,13.28
2019-02-04T11:27:06.842Z,13.57
2019-02-04T11:29:38.960Z,13.00
2019-02-04T11:32:10.524Z,12.23
2019-02-04T11:34:42.147Z,13.53
2019-02-04T11:37:15.194Z,15.13
2019-02-04T11:39:47.321Z,15.83
2019-02-04T11:42:18.773Z,12.93
2019-02-04T11:44:50.118Z,16.83
2019-02-04T11:47:21.622Z,14.10
2019-02-04T11:49:53.907Z,15.00
2019-02-04T11:52:25.727Z,12.43
2019-02-04T11:54:57.446Z,14.73
2019-02-04T11:57:28.813Z,12.83
2019-02-04T12:00:00.215Z,15.47
2019-02-04T12:02:34.693Z,14.53
2019-02-04T12:05:05.972Z,18.83
2019-02-04T12:07:37.467Z,16.17
2019-02-04T12:10:12.174Z,14.83
2019-02-04T12:12:43.528Z,15.90
2019-02-04T12:15:17.644Z,17.47
2019-02-04T12:17:49.372Z,13.63
2019-02-04T12:20:21.340Z,17.25
2019-02-04T12:22:52.798Z,15.63
2019-02-04T12:25:26.510Z,18.27
2019-02-04T12:27:58.582Z,18.33
2019-02-04T12:30:36.312Z,18.27
2019-02-04T12:33:10.171Z,16.80
2019-02-04T12:35:41.502Z,22.65
2019-02-04T12:38:13.184Z,20.90
2019-02-04T12:40:44.835Z,18.57
2019-02-04T12:43:16.419Z,16.63
2019-02-04T12:45:48.603Z,14.57
2019-02-04T12:48:20.331Z,18.73
2019-02-04T12:50:51.992Z,18.37
2019-02-04T12:53:23.419Z,17.10
2019-02-04T12:55:55.020Z,20.65
2019-02-04T12:58:26.316Z,20.50
2019-02-04T13:00:57.653Z,19.37
2019-02-04T13:03:31.643Z,18.55
2019-02-04T13:06:04.116Z,15.33
2019-02-04T13:08:36.217Z,19.50
2019-02-04T13:11:07.976Z,17.50
2019-02-04T13:13:39.320Z,22.60
2019-02-04T13:16:11.881Z,19.10
2019-02-04T13:18:43.453Z,18.87
2019-02-04T13:21:14.786Z,18.43
2019-02-04T13:23:46.938Z,20.67
2019-02-04T13:26:18.234Z,17.67
2019-02-04T13:28:49.679Z,20.47
2019-02-04T13:31:21.069Z,15.80
2019-02-04T13:33:52.528Z,19.77
2019-02-04T13:36:23.864Z,18.77
2019-02-04T13:38:55.786Z,17.03
2019-02-04T13:41:27.108Z,18.83
2019-02-04T13:43:58.411Z,18.30
2019-02-04T13:46:29.859Z,16.93
2019-02-04T13:49:01.207Z,20.23
2019-02-04T13:51:32.488Z,16.93
2019-02-04T13:54:03.833Z,17.62
2019-02-04T13:56:35.144Z,20.47
2019-02-04T13:59:06.657Z,23.30
2019-02-04T14:01:38.009Z,18.90
2019-02-04T14:04:09.429Z,18.50
2019-02-04T14:06:40.753Z,20.87
2019-02-04T14:09:20.210Z,17.65
2019-02-04T14:11:51.910Z,19.77
2019-02-04T14:14:23.609Z,19.87
2019-02-04T14:16:54.946Z,21.07
2019-02-04T14:19:26.951Z,18.35
2019-02-04T14:22:08.662Z,18.13
2019-02-04T14:24:31.674Z,19.57
2019-02-04T14:27:03.854Z,18.33
2019-02-04T14:29:35.184Z,18.13
2019-02-04T14:32:07.319Z,19.83
2019-02-04T14:34:38.648Z,17.70
2019-02-04T14:37:10.012Z,18.27
2019-02-04T14:39:41.564Z,17.63
2019-02-04T14:42:17.664Z,18.45
2019-02-04T14:45:58.078Z,20.03
2019-02-04T14:49:23.525Z,17.27
2019-02-04T14:52:32.601Z,17.47
2019-02-04T14:56:02.565Z,18.82
2019-02-04T14:59:29.116Z,21.52
2019-02-04T15:02:53.456Z,18.67
2019-02-04T15:06:08.954Z,18.33
2019-02-04T15:09:11.367Z,17.47
2019-02-04T15:12:48.864Z,16.23
2019-02-04T15:16:26.270Z,13.17
2019-02-04T15:19:52.706Z,16.00
2019-02-04T15:23:14.372Z,17.53
2019-02-04T15:26:42.867Z,13.83
2019-02-04T15:30:03.881Z,15.60
2019-02-04T15:33:45.421Z,15.77
2019-02-04T15:36:53.136Z,17.60
2019-02-04T15:40:08.485Z,14.63
2019-02-04T15:43:28.140Z,17.57
2019-02-04T15:47:06.477Z,16.53
2019-02-04T15:50:22.519Z,18.57
2019-02-04T15:52:54.233Z,15.33
2019-02-04T15:55:25.558Z,14.80
2019-02-04T15:57:56.862Z,17.10
2019-02-04T16:00:28.688Z,14.37
2019-02-04T16:03:00.410Z,13.00
2019-02-04T16:05:31.837Z,15.07
2019-02-04T16:08:03.218Z,17.03
2019-02-04T16:10:34.870Z,17.50
2019-02-04T16:13:06.896Z,11.83
2019-02-04T16:15:38.399Z,12.70
2019-02-04T16:18:09.692Z,12.23
2019-02-04T16:20:41.074Z,11.68
2019-02-04T16:23:12.504Z,17.13
2019-02-04T16:25:43.812Z,13.47
2019-02-04T16:28:15.257Z,12.40
2019-02-04T16:30:46.930Z,16.37
2019-02-04T16:33:18.264Z,16.63
2019-02-04T16:35:49.592Z,14.43
2019-02-04T16:38:21.276Z,13.23
2019-02-04T16:40:52.565Z,11.97
2019-02-04T16:43:24.245Z,15.30
2019-02-04T16:45:57.154Z,12.13
2019-02-04T16:48:28.429Z,13.00
2019-02-04T16:51:11.284Z,11.70
2019-02-04T16:53:33.015Z,12.73
2019-02-04T16:56:04.402Z,18.27
2019-02-04T16:58:36.046Z,12.27
2019-02-04T17:01:07.695Z,14.67
2019-02-04T17:03:39.739Z,11.97
2019-02-04T17:06:11.802Z,15.77
2019-02-04T17:08:43.132Z,14.97
2019-02-04T17:11:14.409Z,15.67
2019-02-04T17:13:45.719Z,13.97
2019-02-04T17:16:17.435Z,13.53
2019-02-04T17:18:49.209Z,12.67
2019-02-04T17:21:20.549Z,12.03
2019-02-04T17:23:51.952Z,14.87
2019-02-04T17:26:23.292Z,12.77
2019-02-04T17:28:54.602Z,13.43
2019-02-04T17:31:25.966Z,11.70
2019-02-04T17:33:57.341Z,13.03
2019-02-04T17:36:29.002Z,13.03
2019-02-04T17:39:00.737Z,11.43
2019-02-04T17:41:32.326Z,17.00
2019-02-04T17:44:04.051Z,15.93
2019-02-04T17:46:35.622Z,13.17
2019-02-04T17:49:08.360Z,11.20
2019-02-04T17:51:40.236Z,13.03
2019-02-04T17:54:11.939Z,17.60
2019-02-04T17:56:43.206Z,16.53
2019-02-04T17:59:15.058Z,15.18
2019-02-04T18:01:46.808Z,17.37
2019-02-04T18:04:18.937Z,14.17
2019-02-04T18:06:50.267Z,23.92
2019-02-04T18:09:22.621Z,20.50
2019-02-04T18:11:53.973Z,15.07
2019-02-04T18:14:25.612Z,13.00
2019-02-04T18:16:56.938Z,16.10
2019-02-04T18:19:28.641Z,12.77
2019-02-04T18:22:00.609Z,13.73
2019-02-04T18:24:32.015Z,13.57
2019-02-04T18:27:03.597Z,12.93
2019-02-04T18:29:34.903Z,14.30
2019-02-04T18:32:06.481Z,14.93
2019-02-04T18:34:37.778Z,11.93
2019-02-04T18:37:09.472Z,15.77
2019-02-04T18:39:40.805Z,11.37
2019-02-04T18:42:12.104Z,12.03
2019-02-04T18:44:44.403Z,12.90
2019-02-04T18:47:16.091Z,12.07
2019-02-04T18:49:47.683Z,14.93
2019-02-04T18:52:19.682Z,9.73
2019-02-04T18:54:51.536Z,12.30
2019-02-04T18:57:23.132Z,14.03
2019-02-04T18:59:54.464Z,12.73
2019-02-04T19:02:25.800Z,12.90
2019-02-04T19:04:57.120Z,14.10
2019-02-04T19:07:28.561Z,15.43
2019-02-04T19:10:00.201Z,11.57
2019-02-04T19:12:31.541Z,14.10
2019-02-04T19:15:02.846Z,12.83
2019-02-04T19:17:34.496Z,11.73
2019-02-04T19:20:06.856Z,11.33
2019-02-04T19:22:38.370Z,12.37
2019-02-04T19:25:11.074Z,12.03
2019-02-04T19:27:42.802Z,11.37
2019-02-04T19:30:47.356Z,12.87
2019-02-04T19:33:18.856Z,15.37
2019-02-04T19:35:50.372Z,15.50
2019-02-04T19:38:21.779Z,13.27
2019-02-04T19:40:53.991Z,12.00
2019-02-04T19:43:25.391Z,12.13
2019-02-04T19:45:56.739Z,15.83
2019-02-04T19:48:28.070Z,13.03
2019-02-04T19:50:59.398Z,10.80
2019-02-04T19:53:31.101Z,12.33
2019-02-04T19:56:02.853Z,12.70
2019-02-04T19:58:34.211Z,15.20
2019-02-04T20:01:06.761Z,9.28
2019-02-04T20:03:38.050Z,20.17
2019-02-04T20:06:09.626Z,11.03
2019-02-04T20:08:41.622Z,9.93
2019-02-04T20:11:12.981Z,13.13
2019-02-04T20:13:44.609Z,12.83
2019-02-04T20:16:15.958Z,11.75
2019-02-04T20:18:48.032Z,12.77
2019-02-04T20:21:19.369Z,10.50
2019-02-04T20:23:50.715Z,13.53
2019-02-04T20:26:22.203Z,8.30
2019-02-04T20:28:53.553Z,13.50
2019-02-04T20:31:24.976Z,7.53
2019-02-04T20:33:56.320Z,9.03
2019-02-04T20:36:28.264Z,8.65
2019-02-04T20:38:59.613Z,15.47
2019-02-04T20:41:30.941Z,10.97
2019-02-04T20:44:02.620Z,9.63
2019-02-04T20:46:34.201Z,8.95
2019-02-04T20:49:06.182Z,11.53
2019-02-04T20:51:37.793Z,10.13
2019-02-04T20:54:19.455Z,12.43
2019-02-04T20:56:42.205Z,11.23
2019-02-04T20:59:13.741Z,11.18
2019-02-04T21:01:45.406Z,13.37
2019-02-04T21:04:16.719Z,11.70
2019-02-04T21:06:55.788Z,10.90
2019-02-04T21:09:21.192Z,10.73
2019-02-04T21:11:52.594Z,11.40
2019-02-04T21:14:23.907Z,10.70
2019-02-04T21:16:55.556Z,11.40
2019-02-04T21:19:26.940Z,11.27
2019-02-04T21:21:58.639Z,10.87
2019-02-04T21:24:30.418Z,12.87
2019-02-04T21:27:02.487Z,12.90
2019-02-04T21:29:33.796Z,9.77
2019-02-04T21:32:05.186Z,10.00
2019-02-04T21:34:36.488Z,12.03
2019-02-04T21:37:08.347Z,9.63
2019-02-04T21:39:39.685Z,12.73
2019-02-04T21:42:11.005Z,10.43
2019-02-04T21:44:42.300Z,12.77
2019-02-04T21:47:13.922Z,11.12
2019-02-04T21:49:45.850Z,9.37
2019-02-04T21:52:17.129Z,12.28
2019-02-04T21:54:48.770Z,8.07
2019-02-04T21:57:20.225Z,8.60
2019-02-04T21:59:51.907Z,11.40
2019-02-04T22:02:23.794Z,9.63
2019-02-04T22:04:55.418Z,8.93
2019-02-04T22:07:26.795Z,9.43
2019-02-04T22:09:58.497Z,9.87
2019-02-04T22:12:30.243Z,11.73
2019-02-04T22:15:01.580Z,11.53
2019-02-04T22:17:33.592Z,10.83
2019-02-04T22:20:06.813Z,10.70
2019-02-04T22:22:38.616Z,10.30
2019-02-04T22:25:19.474Z,14.03
2019-02-04T22:27:44.182Z,9.95
2019-02-04T22:30:22.185Z,10.65
2019-02-04T22:32:53.526Z,13.80
2019-02-04T22:35:25.126Z,13.53
2019-02-04T22:37:56.766Z,11.73
2019-02-04T22:40:30.304Z,12.73
2019-02-04T22:43:01.976Z,11.77
2019-02-04T22:45:33.655Z,9.37
2019-02-04T22:48:05.075Z,10.57
2019-02-04T22:50:36.383Z,10.27
2019-02-04T22:53:08.247Z,8.90
2019-02-04T22:55:39.592Z,9.43
2019-02-04T22:58:11.228Z,11.47
2019-02-04T23:01:15.221Z,12.53
2019-02-04T23:03:46.532Z,10.70
2019-02-04T23:06:18.116Z,8.88
2019-02-04T23:08:49.487Z,12.10
2019-02-04T23:11:21.386Z,7.93
2019-02-04T23:13:53.480Z,9.33
2019-02-04T23:16:25.497Z,8.07
2019-02-04T23:18:56.964Z,10.73
2019-02-04T23:21:28.601Z,8.83
2019-02-04T23:24:00.057Z,9.73
2019-02-04T23:26:31.542Z,13.23
2019-02-04T23:29:02.845Z,9.93
2019-02-04T23:31:34.207Z,8.27
2019-02-04T23:34:06.370Z,7.90
2019-02-04T23:36:38.163Z,8.98
2019-02-04T23:39:11.407Z,12.20
2019-02-04T23:41:42.745Z,8.73
2019-02-04T23:44:14.110Z,10.40
2019-02-04T23:46:46.274Z,11.70
2019-02-04T23:49:17.867Z,7.57
2019-02-04T23:51:49.172Z,9.27
2019-02-04T23:54:20.463Z,9.53
2019-02-04T23:56:52.237Z,14.47
2019-02-04T23:59:23.952Z,9.33
